Time;durP1;ratioP1;P1;durP2;ratioP2;P2;SDS_P1;SDS_P2;PMS_P1;PMS_P2;Temp;Humidity;BMP_temperature;BMP_pressure;BME280_temperature;BME280_humidity;BME280_pressure;Samples;Min_cycle;Max_cycle;Signal;HPM_P1;HPM_P2
2023/05/29 00:00:20;;;;;;;0.60;0.40;;;10.20;99.90;;;;;;5009339;28;20799;-83
2023/05/29 00:02:50;;;;;;;13.67;1.27;;;10.20;99.90;;;;;;4975676;28;20698;-83
2023/05/29 00:05:16;;;;;;;0.50;0.50;;;10.20;99.90;;;;;;4991693;28;20226;-83
2023/05/29 00:07:43;;;;;;;3.43;0.63;;;10.10;99.90;;;;;;5008896;28;20843;-82
2023/05/29 00:10:10;;;;;;;1.63;0.83;;;10.10;99.90;;;;;;4975386;28;20186;-83
2023/05/29 00:12:38;;;;;;;2.20;0.83;;;10.10;99.90;;;;;;4992234;28;20175;-82
2023/05/29 00:15:04;;;;;;;1.07;1.07;;;10.10;99.90;;;;;;4991223;28;20695;-82
2023/05/29 00:17:34;;;;;;;8.77;1.33;;;10.10;99.90;;;;;;5008900;28;20452;-82
2023/05/29 00:20:01;;;;;;;0.73;0.73;;;10.10;99.90;;;;;;5008486;28;20406;-82
2023/05/29 00:22:27;;;;;;;1.17;0.47;;;10.10;99.90;;;;;;4991296;28;20235;-83
2023/05/29 00:24:53;;;;;;;3.93;1.10;;;10.10;99.90;;;;;;4990920;28;20211;-82
2023/05/29 00:27:19;;;;;;;6.53;0.90;;;10.10;99.90;;;;;;4974998;28;20793;-82
2023/05/29 00:29:45;;;;;;;2.23;1.10;;;10.20;99.90;;;;;;4991206;28;20276;-82
2023/05/29 00:32:11;;;;;;;0.90;0.90;;;10.20;99.90;;;;;;5008242;28;20219;-83
2023/05/29 00:34:37;;;;;;;2.33;0.90;;;10.20;99.90;;;;;;5008390;28;20276;-82
2023/05/29 00:37:03;;;;;;;6.47;1.63;;;10.20;99.90;;;;;;4990916;28;20289;-83
2023/05/29 00:39:29;;;;;;;1.67;0.50;;;10.20;99.90;;;;;;4975223;28;20596;-82
2023/05/29 00:41:55;;;;;;;0.70;0.70;;;10.20;99.90;;;;;;4991149;28;20223;-83
2023/05/29 00:44:21;;;;;;;6.87;1.00;;;10.20;99.90;;;;;;4991055;28;20613;-82
2023/05/29 00:46:52;;;;;;;8.23;1.40;;;10.30;99.90;;;;;;4990853;28;20306;-82
2023/05/29 00:49:21;;;;;;;2.00;0.70;;;10.30;99.90;;;;;;4990548;28;20220;-82
2023/05/29 00:51:48;;;;;;;5.30;2.07;;;10.30;99.90;;;;;;4991391;28;20186;-82
2023/05/29 00:54:27;;;;;;;1.13;1.03;;;10.30;99.90;;;;;;4974499;28;20285;-82
2023/05/29 00:56:53;;;;;;;0.97;0.67;;;10.30;99.90;;;;;;5008280;28;20302;-82
2023/05/29 00:59:21;;;;;;;6.17;1.47;;;10.40;99.90;;;;;;5008148;28;20219;-82
2023/05/29 01:01:51;;;;;;;2.00;0.60;;;10.50;99.90;;;;;;4990664;28;20246;-82
2023/05/29 01:04:17;;;;;;;5.10;1.13;;;10.60;99.90;;;;;;5008066;28;20227;-82
2023/05/29 01:06:43;;;;;;;1.63;1.00;;;10.80;99.90;;;;;;5008625;28;20191;-81
2023/05/29 01:09:10;;;;;;;1.57;0.77;;;10.80;99.90;;;;;;5008117;28;20226;-82
2023/05/29 01:12:16;;;;;;;5.93;0.93;;;10.80;99.90;;;;;;5007854;28;20703;-82
2023/05/29 01:14:47;;;;;;;1.33;1.03;;;10.90;99.90;;;;;;5007756;28;20222;-82
2023/05/29 01:17:24;;;;;;;1.10;1.00;;;10.90;99.90;;;;;;5006933;28;20226;-82
2023/05/29 01:19:52;;;;;;;2.13;2.00;;;10.90;99.90;;;;;;4990119;28;20723;-82
2023/05/29 01:22:58;;;;;;;2.77;1.33;;;11.00;99.90;;;;;;5007672;28;20211;-82
2023/05/29 01:25:35;;;;;;;0.77;0.77;;;11.00;99.90;;;;;;4989971;28;20707;-83
2023/05/29 01:28:04;;;;;;;0.87;0.57;;;11.00;99.90;;;;;;5007679;28;20171;-82
2023/05/29 01:30:32;;;;;;;0.37;0.37;;;11.00;99.90;;;;;;5007842;28;20183;-82
2023/05/29 01:32:59;;;;;;;5.93;1.53;;;11.00;99.90;;;;;;4989896;28;20223;-84
2023/05/29 01:35:25;;;;;;;3.87;1.03;;;10.90;99.90;;;;;;4989568;28;20235;-83
2023/05/29 01:37:51;;;;;;;4.10;1.50;;;10.90;99.90;;;;;;5007664;28;20230;-83
2023/05/29 01:40:17;;;;;;;6.20;1.57;;;11.00;99.90;;;;;;4989652;28;20239;-82
2023/05/29 01:42:43;;;;;;;2.30;1.20;;;10.90;99.90;;;;;;4974187;28;20188;-83
2023/05/29 01:45:10;;;;;;;0.70;0.60;;;10.90;99.90;;;;;;5005959;28;20227;-82
2023/05/29 01:47:36;;;;;;;0.40;0.40;;;10.90;99.90;;;;;;4973796;28;20214;-82
2023/05/29 01:50:04;;;;;;;6.43;1.80;;;10.90;99.90;;;;;;4973336;28;20241;-83
2023/05/29 01:52:31;;;;;;;6.30;0.97;;;11.00;99.90;;;;;;4989836;28;20215;-83
2023/05/29 01:54:56;;;;;;;16.67;0.93;;;11.00;99.90;;;;;;4974111;28;20267;-82
2023/05/29 01:57:23;;;;;;;0.97;0.83;;;10.90;99.90;;;;;;4989917;28;20806;-81
2023/05/29 01:59:49;;;;;;;3.10;0.87;;;10.80;99.90;;;;;;4973734;28;20231;-81
2023/05/29 02:02:15;;;;;;;12.07;1.60;;;10.80;99.90;;;;;;4989188;28;20215;-82
2023/05/29 02:04:41;;;;;;;2.30;1.50;;;10.80;99.90;;;;;;5007006;28;20314;-82
2023/05/29 02:07:07;;;;;;;4.80;1.00;;;10.70;99.90;;;;;;4989445;28;20249;-83
2023/05/29 02:09:34;;;;;;;0.77;0.70;;;10.70;99.90;;;;;;4989958;28;20223;-82
2023/05/29 02:12:00;;;;;;;1.63;1.10;;;10.70;99.90;;;;;;4973401;28;20297;-82
2023/05/29 02:14:26;;;;;;;5.27;0.73;;;10.60;99.90;;;;;;4973578;28;20218;-81
2023/05/29 02:16:52;;;;;;;5.20;1.90;;;10.50;99.90;;;;;;4973240;28;20276;-81
2023/05/29 02:19:18;;;;;;;4.30;1.10;;;10.50;99.90;;;;;;4989482;28;20291;-82
2023/05/29 02:21:46;;;;;;;5.50;1.30;;;10.50;99.90;;;;;;4973790;28;20187;-82
2023/05/29 02:24:12;;;;;;;5.50;0.67;;;10.50;99.90;;;;;;5006592;28;20215;-82
2023/05/29 02:26:37;;;;;;;3.37;0.97;;;10.60;99.90;;;;;;5006869;28;20866;-83
2023/05/29 02:29:05;;;;;;;2.60;1.20;;;10.70;99.90;;;;;;4972989;28;20223;-82
2023/05/29 02:31:31;;;;;;;4.20;0.50;;;10.80;99.90;;;;;;4973047;28;20566;-82
2023/05/29 02:33:57;;;;;;;2.47;1.23;;;10.90;99.90;;;;;;4973783;28;20186;-82
2023/05/29 02:36:22;;;;;;;1.90;1.27;;;10.90;99.90;;;;;;4973046;28;20290;-82
2023/05/29 02:38:48;;;;;;;0.50;0.50;;;11.00;99.90;;;;;;4989309;28;20290;-82
2023/05/29 02:41:14;;;;;;;2.03;0.70;;;11.10;99.90;;;;;;4988929;28;20254;-82
2023/05/29 02:43:40;;;;;;;0.77;0.70;;;11.10;99.90;;;;;;4972914;28;20223;-82
2023/05/29 02:46:05;;;;;;;2.53;1.43;;;11.20;99.90;;;;;;4988846;28;20194;-82
2023/05/29 02:48:31;;;;;;;3.93;1.17;;;11.20;99.90;;;;;;4975563;28;20283;-82
2023/05/29 02:50:57;;;;;;;2.20;0.97;;;11.20;99.90;;;;;;5010597;28;20215;-82
2023/05/29 02:53:22;;;;;;;0.77;0.77;;;11.10;99.90;;;;;;4976602;28;20322;-82
2023/05/29 02:55:51;;;;;;;1.80;1.30;;;11.10;99.90;;;;;;4960506;28;20215;-82
2023/05/29 02:58:16;;;;;;;2.53;1.43;;;11.10;99.90;;;;;;4977152;28;20179;-82
2023/05/29 03:00:43;;;;;;;8.40;1.23;;;11.10;99.90;;;;;;4977073;28;20211;-83
2023/05/29 03:03:09;;;;;;;0.90;0.87;;;11.10;99.90;;;;;;5010585;28;20215;-83
2023/05/29 03:05:34;;;;;;;6.03;1.03;;;11.20;99.90;;;;;;5010311;28;20311;-83
2023/05/29 03:08:00;;;;;;;1.10;0.83;;;11.20;99.90;;;;;;4992293;28;20231;-82
2023/05/29 03:10:26;;;;;;;0.60;0.60;;;11.20;99.90;;;;;;4976654;28;20710;-84
2023/05/29 03:12:52;;;;;;;2.17;1.23;;;11.10;99.90;;;;;;4977386;28;20180;-85
2023/05/29 03:15:19;;;;;;;5.90;0.63;;;11.10;99.90;;;;;;4976326;28;20772;-83
2023/05/29 03:17:46;;;;;;;1.70;0.73;;;11.00;99.90;;;;;;4992703;28;20215;-84
2023/05/29 03:20:13;;;;;;;4.13;2.03;;;11.00;99.90;;;;;;4992052;28;20235;-83
2023/05/29 03:22:38;;;;;;;0.87;0.60;;;11.00;99.90;;;;;;4992191;28;20711;-83
2023/05/29 03:25:05;;;;;;;2.00;0.93;;;11.00;99.90;;;;;;4992221;28;20270;-83
2023/05/29 03:27:31;;;;;;;2.50;0.60;;;10.90;99.90;;;;;;4976472;28;20184;-83
2023/05/29 03:29:58;;;;;;;0.40;0.37;;;10.90;99.90;;;;;;4992110;28;20269;-83
2023/05/29 03:32:24;;;;;;;0.93;0.73;;;10.90;99.90;;;;;;4992330;28;20298;-84
2023/05/29 03:34:50;;;;;;;1.90;0.83;;;11.00;99.90;;;;;;4991771;28;20305;-84
2023/05/29 03:37:16;;;;;;;4.07;1.00;;;11.00;99.90;;;;;;5010319;28;20317;-83
2023/05/29 03:39:42;;;;;;;5.40;1.13;;;11.00;99.90;;;;;;4993441;28;20257;-84
2023/05/29 03:42:08;;;;;;;5.17;0.80;;;11.00;99.90;;;;;;4976847;28;20214;-84
2023/05/29 03:44:34;;;;;;;8.07;1.07;;;11.10;99.90;;;;;;4976962;28;20211;-84
2023/05/29 03:46:59;;;;;;;3.13;1.17;;;11.10;99.90;;;;;;4992883;28;20680;-85
2023/05/29 03:49:25;;;;;;;1.63;0.53;;;11.10;99.90;;;;;;4960491;28;20762;-84
2023/05/29 03:51:51;;;;;;;0.30;0.30;;;11.10;99.90;;;;;;4977553;28;20237;-84
2023/05/29 03:54:17;;;;;;;2.40;1.33;;;11.00;99.90;;;;;;4977228;28;20219;-83
2023/05/29 03:56:42;;;;;;;1.60;1.43;;;11.00;99.90;;;;;;4976972;28;20219;-84
2023/05/29 03:59:08;;;;;;;4.53;1.57;;;10.90;99.90;;;;;;4993094;28;20696;-84
2023/05/29 04:01:34;;;;;;;0.70;0.70;;;11.00;99.90;;;;;;4976697;28;20293;-85
2023/05/29 04:04:00;;;;;;;1.40;0.77;;;11.00;99.90;;;;;;4992331;28;20233;-83
2023/05/29 04:06:26;;;;;;;2.03;0.60;;;11.00;99.90;;;;;;4993863;28;20187;-84
2023/05/29 04:08:52;;;;;;;0.87;0.77;;;11.00;99.90;;;;;;4977186;28;20747;-84
2023/05/29 04:11:20;;;;;;;1.90;0.70;;;11.00;99.90;;;;;;4993075;28;20249;-84
2023/05/29 04:13:47;;;;;;;6.27;1.40;;;11.10;99.90;;;;;;4993178;28;20239;-84
2023/05/29 04:16:13;;;;;;;0.90;0.73;;;11.10;99.90;;;;;;4992677;28;20645;-84
2023/05/29 04:18:39;;;;;;;10.03;0.93;;;11.10;99.90;;;;;;4993552;28;20171;-84
2023/05/29 04:21:05;;;;;;;0.93;0.93;;;11.20;99.90;;;;;;4992791;28;20289;-84
2023/05/29 04:23:31;;;;;;;0.60;0.60;;;11.30;99.90;;;;;;4993085;28;20840;-85
2023/05/29 04:25:57;;;;;;;3.50;1.43;;;11.30;99.90;;;;;;4992662;28;20302;-84
2023/05/29 04:28:23;;;;;;;1.60;0.70;;;11.40;99.90;;;;;;4992438;28;20568;-84
2023/05/29 04:30:49;;;;;;;1.50;0.60;;;11.40;99.90;;;;;;4993257;28;20180;-84
2023/05/29 04:33:15;;;;;;;1.70;0.50;;;11.50;99.90;;;;;;4975922;28;20222;-85
2023/05/29 04:35:43;;;;;;;6.13;0.67;;;11.60;99.90;;;;;;4992556;28;20585;-85
2023/05/29 04:38:10;;;;;;;2.90;1.13;;;11.60;99.90;;;;;;4976937;28;20226;-84
2023/05/29 04:40:40;;;;;;;9.23;0.60;;;11.80;99.90;;;;;;4976329;28;20302;-86
2023/05/29 04:43:06;;;;;;;1.30;0.70;;;11.70;99.90;;;;;;4993440;28;20291;-84
2023/05/29 04:45:32;;;;;;;2.40;0.83;;;11.60;99.90;;;;;;4993182;28;20263;-84
2023/05/29 04:47:57;;;;;;;0.97;0.77;;;11.60;99.90;;;;;;4976287;28;20219;-84
2023/05/29 04:50:23;;;;;;;12.93;1.80;;;11.50;99.90;;;;;;4992506;28;20274;-84
2023/05/29 04:52:52;;;;;;;8.13;1.17;;;11.60;99.90;;;;;;4975636;28;20657;-85
2023/05/29 04:55:17;;;;;;;6.67;1.23;;;11.60;99.90;;;;;;4992007;28;20225;-84
2023/05/29 04:57:44;;;;;;;5.87;1.20;;;11.60;99.90;;;;;;4976279;28;20266;-83
2023/05/29 05:00:17;;;;;;;0.70;0.67;;;11.70;99.90;;;;;;4991757;28;20676;-84
2023/05/29 05:02:44;;;;;;;5.97;0.77;;;11.70;99.90;;;;;;4961187;28;20268;-84
2023/05/29 05:05:10;;;;;;;2.53;1.07;;;11.70;99.90;;;;;;5009017;28;20225;-85
2023/05/29 05:07:36;;;;;;;4.93;0.70;;;11.80;99.90;;;;;;4975725;28;20242;-85
2023/05/29 05:10:04;;;;;;;2.50;1.60;;;11.90;99.90;;;;;;4975253;28;20219;-86
2023/05/29 05:12:29;;;;;;;0.83;0.80;;;11.90;99.90;;;;;;4991959;28;20180;-85
2023/05/29 05:14:55;;;;;;;6.03;0.90;;;11.90;99.90;;;;;;5008855;28;20293;-89
2023/05/29 05:17:21;;;;;;;2.93;0.97;;;11.80;99.90;;;;;;4991856;28;20233;-87
2023/05/29 05:19:49;;;;;;;3.17;1.27;;;11.90;99.90;;;;;;5009057;28;20866;-86
2023/05/29 05:22:16;;;;;;;6.77;1.57;;;12.20;99.90;;;;;;4992049;28;20183;-86
2023/05/29 05:24:44;;;;;;;2.37;0.80;;;12.30;99.90;;;;;;4993197;28;20179;-86
2023/05/29 05:27:10;;;;;;;10.47;1.03;;;12.40;99.90;;;;;;5008616;28;20281;-85
2023/05/29 05:29:36;;;;;;;3.97;1.43;;;12.40;99.90;;;;;;4959840;28;20673;-85
2023/05/29 05:32:02;;;;;;;2.07;1.67;;;12.60;99.90;;;;;;4991029;28;20215;-85
2023/05/29 05:34:28;;;;;;;0.87;0.80;;;12.70;99.90;;;;;;4975567;28;20242;-86
2023/05/29 05:36:53;;;;;;;2.77;0.83;;;12.90;99.90;;;;;;4992506;28;20298;-86
2023/05/29 05:39:19;;;;;;;3.60;1.00;;;12.90;99.90;;;;;;4992012;28;20277;-87
2023/05/29 05:41:45;;;;;;;7.73;1.77;;;12.80;99.90;;;;;;4975976;28;20575;-88
2023/05/29 05:44:11;;;;;;;3.50;0.67;;;12.50;99.90;;;;;;4990754;28;20306;-83
2023/05/29 05:46:36;;;;;;;3.23;0.80;;;12.40;99.90;;;;;;5009033;28;20215;-86
2023/05/29 05:49:02;;;;;;;0.83;0.73;;;12.40;99.90;;;;;;4992466;28;20183;-85
2023/05/29 05:51:28;;;;;;;5.70;1.20;;;12.60;99.90;;;;;;4959875;28;20184;-86
2023/05/29 05:53:54;;;;;;;8.10;1.63;;;12.70;99.90;;;;;;4959364;28;20218;-84
2023/05/29 05:56:20;;;;;;;6.50;0.90;;;12.60;99.90;;;;;;4990978;28;20221;-86
2023/05/29 05:58:45;;;;;;;8.33;1.77;;;12.50;99.90;;;;;;5007882;28;20245;-86
2023/05/29 06:01:11;;;;;;;3.60;2.37;;;12.40;99.90;;;;;;5008545;28;20269;-85
2023/05/29 06:03:37;;;;;;;4.97;2.00;;;12.30;99.90;;;;;;4991822;28;20187;-86
2023/05/29 06:06:03;;;;;;;1.83;1.10;;;12.50;99.90;;;;;;5009671;28;20242;-90
2023/05/29 06:08:30;;;;;;;1.00;0.90;;;12.70;99.90;;;;;;4974150;28;20270;-83
2023/05/29 06:10:56;;;;;;;2.77;1.23;;;12.80;99.90;;;;;;5007040;28;20692;-84
2023/05/29 06:13:22;;;;;;;1.77;0.87;;;12.70;99.90;;;;;;4989658;28;20242;-83
2023/05/29 06:15:47;;;;;;;3.03;0.77;;;12.70;99.90;;;;;;4958119;28;20226;-83
2023/05/29 06:18:13;;;;;;;1.60;0.97;;;12.70;99.90;;;;;;4973503;28;20651;-83
2023/05/29 06:20:39;;;;;;;1.57;0.50;;;12.60;99.90;;;;;;4973607;28;20227;-84
2023/05/29 06:23:05;;;;;;;3.57;1.40;;;12.60;99.90;;;;;;4991168;28;20215;-83
2023/05/29 06:25:34;;;;;;;0.80;0.80;;;12.70;99.90;;;;;;4961403;28;20620;-83
2023/05/29 06:28:05;;;;;;;3.67;1.23;;;12.70;99.90;;;;;;5010138;28;20227;-84
2023/05/29 06:30:31;;;;;;;13.10;2.13;;;13.20;99.90;;;;;;4978516;28;20387;-83
2023/05/29 06:32:57;;;;;;;1.73;1.20;;;13.50;99.90;;;;;;4993518;28;20698;-84
2023/05/29 06:35:23;;;;;;;8.03;0.87;;;13.40;99.90;;;;;;4970819;28;20244;-83
2023/05/29 06:37:48;;;;;;;2.50;1.13;;;14.00;99.90;;;;;;4923270;28;20774;-83
2023/05/29 06:40:17;;;;;;;4.77;1.10;;;14.80;99.90;;;;;;4954943;28;20213;-84
2023/05/29 06:42:44;;;;;;;5.40;1.73;;;15.70;99.90;;;;;;4956146;28;20541;-84
2023/05/29 06:45:13;;;;;;;3.80;1.13;;;16.10;99.90;;;;;;4923175;28;20216;-84
2023/05/29 06:47:40;;;;;;;3.67;1.40;;;15.70;99.90;;;;;;4962811;28;20235;-84
2023/05/29 06:50:07;;;;;;;4.57;1.27;;;15.40;99.90;;;;;;4971978;28;20291;-83
2023/05/29 06:52:33;;;;;;;5.40;1.77;;;14.90;99.90;;;;;;4971636;28;20296;-83
2023/05/29 06:54:59;;;;;;;1.80;1.17;;;14.50;99.90;;;;;;4954458;28;20271;-83
2023/05/29 06:57:24;;;;;;;7.77;1.53;;;14.80;99.90;;;;;;4970805;28;20189;-83
2023/05/29 06:59:50;;;;;;;5.67;1.30;;;15.10;99.90;;;;;;4954469;28;20233;-83
2023/05/29 07:02:16;;;;;;;1.67;0.77;;;15.20;99.90;;;;;;4938497;28;20696;-83
2023/05/29 07:04:44;;;;;;;3.03;1.10;;;14.80;99.90;;;;;;4986102;28;20351;-82
2023/05/29 07:07:10;;;;;;;7.23;1.40;;;14.10;99.90;;;;;;4954028;28;20181;-82
2023/05/29 07:09:36;;;;;;;2.43;1.50;;;13.60;99.90;;;;;;4971440;28;20216;-81
2023/05/29 07:12:02;;;;;;;2.50;0.93;;;13.70;99.90;;;;;;4936922;28;20590;-81
2023/05/29 07:14:27;;;;;;;6.40;1.03;;;13.90;99.90;;;;;;4947438;28;20308;-82
2023/05/29 07:16:53;;;;;;;0.80;0.80;;;14.00;99.90;;;;;;4969794;28;20221;-82
2023/05/29 07:19:19;;;;;;;3.00;1.57;;;14.30;99.90;;;;;;4920417;28;20282;-81
2023/05/29 07:21:45;;;;;;;3.43;1.30;;;14.40;99.90;;;;;;4937907;28;20255;-81
2023/05/29 07:24:11;;;;;;;14.70;2.07;;;14.40;99.90;;;;;;4942619;28;20224;-81
2023/05/29 07:26:36;;;;;;;3.00;1.70;;;14.20;99.90;;;;;;4953244;28;20704;-81
2023/05/29 07:29:02;;;;;;;11.47;2.13;;;14.10;99.90;;;;;;4963987;28;20283;-81
2023/05/29 07:31:28;;;;;;;5.90;2.47;;;13.90;99.90;;;;;;4970376;28;20232;-81
2023/05/29 07:33:55;;;;;;;2.53;0.73;;;14.50;99.90;;;;;;4937409;28;20185;-81
2023/05/29 07:36:21;;;;;;;4.57;2.07;;;15.20;99.90;;;;;;4978615;28;20243;-81
2023/05/29 07:38:47;;;;;;;3.83;1.87;;;16.00;99.90;;;;;;4991922;28;20389;-82
2023/05/29 07:41:15;;;;;;;5.17;1.97;;;16.10;99.90;;;;;;4975543;28;20227;-80
2023/05/29 07:43:41;;;;;;;2.73;1.73;;;16.60;99.90;;;;;;4991942;28;20251;-80
2023/05/29 07:46:07;;;;;;;2.17;1.50;;;16.80;99.90;;;;;;4959633;28;20668;-80
2023/05/29 07:48:32;;;;;;;4.03;1.20;;;17.00;99.90;;;;;;4992129;28;20649;-80
2023/05/29 07:50:58;;;;;;;7.00;1.13;;;17.40;99.90;;;;;;4975602;28;20230;-81
2023/05/29 07:53:24;;;;;;;4.90;1.53;;;17.50;99.90;;;;;;5008791;28;20738;-80
2023/05/29 07:55:50;;;;;;;4.80;1.90;;;17.20;99.90;;;;;;5009184;28;20623;-81
2023/05/29 07:58:16;;;;;;;5.63;1.93;;;16.30;99.90;;;;;;4958978;28;20195;-80
2023/05/29 08:00:44;;;;;;;6.87;1.20;;;16.30;99.90;;;;;;4992128;28;20548;-81
2023/05/29 08:03:09;;;;;;;3.30;1.17;;;15.80;99.90;;;;;;4991390;28;20223;-80
2023/05/29 08:05:35;;;;;;;3.63;1.20;;;15.70;99.90;;;;;;4975098;28;20471;-80
2023/05/29 08:08:01;;;;;;;3.50;1.17;;;15.90;99.90;;;;;;4974934;28;20579;-80
2023/05/29 08:10:27;;;;;;;4.23;2.00;;;15.70;99.90;;;;;;4958703;28;20223;-81
2023/05/29 08:12:52;;;;;;;2.10;1.50;;;16.00;99.90;;;;;;4975440;28;20194;-80
2023/05/29 08:15:19;;;;;;;5.40;1.87;;;16.20;99.90;;;;;;4990903;28;20298;-80
2023/05/29 08:17:45;;;;;;;1.80;1.00;;;16.70;99.90;;;;;;4991405;28;20226;-80
2023/05/29 08:20:11;;;;;;;3.03;1.17;;;16.40;99.90;;;;;;4990965;28;20261;-80
2023/05/29 08:22:36;;;;;;;5.30;1.20;;;16.70;99.90;;;;;;4974662;28;20434;-81
2023/05/29 08:25:02;;;;;;;4.40;1.60;;;17.50;99.90;;;;;;4974737;28;20637;-80
2023/05/29 08:27:28;;;;;;;2.97;0.93;;;17.00;99.90;;;;;;4975173;28;20187;-80
2023/05/29 08:29:54;;;;;;;1.97;1.03;;;16.70;99.90;;;;;;4958543;28;20426;-80
2023/05/29 08:32:21;;;;;;;8.70;2.33;;;17.70;99.90;;;;;;4974250;28;20211;-81
2023/05/29 08:34:46;;;;;;;1.17;1.00;;;16.60;99.90;;;;;;5007875;28;20242;-81
2023/05/29 08:37:13;;;;;;;6.90;1.90;;;16.40;99.90;;;;;;4990298;28;20815;-79
2023/05/29 08:39:39;;;;;;;3.50;1.17;;;16.70;99.90;;;;;;5008794;28;20664;-80
2023/05/29 08:42:10;;;;;;;11.70;2.53;;;16.30;99.90;;;;;;4974834;28;20246;-80
2023/05/29 08:44:39;;;;;;;7.03;1.50;;;16.40;99.90;;;;;;4990552;28;20263;-80
2023/05/29 08:47:07;;;;;;;3.73;1.40;;;15.90;99.90;;;;;;5007460;28;20227;-80
2023/05/29 08:49:43;;;;;;;6.43;1.40;;;15.60;99.90;;;;;;5008076;28;20217;-79
2023/05/29 08:52:15;;;;;;;3.10;1.53;;;15.20;99.90;;;;;;5008490;28;20175;-80
2023/05/29 08:54:41;;;;;;;8.10;1.67;;;14.90;99.90;;;;;;5008460;28;20175;-79
2023/05/29 08:57:07;;;;;;;3.33;1.33;;;14.70;99.90;;;;;;4958537;28;20300;-80
2023/05/29 08:59:34;;;;;;;2.30;1.53;;;14.70;99.90;;;;;;5007615;28;20306;-79
2023/05/29 09:02:00;;;;;;;9.67;2.20;;;15.00;99.90;;;;;;4974107;28;20802;-81
2023/05/29 09:04:30;;;;;;;5.40;1.40;;;15.00;99.90;;;;;;4973904;28;20258;-79
2023/05/29 09:06:57;;;;;;;3.70;1.80;;;14.90;99.90;;;;;;4991002;28;20190;-79
2023/05/29 09:09:23;;;;;;;10.77;1.17;;;14.60;99.90;;;;;;5006871;28;20211;-79
2023/05/29 09:11:50;;;;;;;3.87;1.27;;;14.50;99.90;;;;;;4974129;28;20551;-79
2023/05/29 09:14:35;;;;;;;6.00;1.63;;;14.50;99.90;;;;;;4990190;28;20215;-79
2023/05/29 09:17:03;;;;;;;6.97;1.57;;;14.60;99.90;;;;;;4989798;28;20696;-79
2023/05/29 09:19:29;;;;;;;16.87;1.43;;;14.90;99.90;;;;;;4989961;28;20207;-79
2023/05/29 09:22:05;;;;;;;4.53;1.23;;;15.20;99.90;;;;;;4990589;28;20179;-79
2023/05/29 09:24:36;;;;;;;4.10;2.17;;;14.90;99.90;;;;;;4990209;28;20266;-79
2023/05/29 09:27:07;;;;;;;2.53;1.53;;;15.50;99.90;;;;;;4989725;28;20222;-80
2023/05/29 09:29:41;;;;;;;1.57;1.43;;;16.00;99.90;;;;;;4974384;28;20215;-79
2023/05/29 09:32:16;;;;;;;2.93;1.63;;;16.10;99.90;;;;;;4989903;28;20215;-80
2023/05/29 09:34:43;;;;;;;5.30;2.10;;;16.50;99.90;;;;;;5006056;28;20223;-80
2023/05/29 09:37:11;;;;;;;11.13;0.90;;;16.40;99.90;;;;;;4973631;28;20226;-80
2023/05/29 09:39:53;;;;;;;2.63;1.37;;;15.90;99.90;;;;;;4990420;28;20195;-80
2023/05/29 09:42:19;;;;;;;4.67;2.20;;;16.10;99.90;;;;;;4990070;28;20293;-80
2023/05/29 09:44:54;;;;;;;7.23;1.23;;;15.80;99.90;;;;;;4989635;28;20938;-80
2023/05/29 09:47:20;;;;;;;6.40;1.20;;;15.60;99.90;;;;;;4973634;28;20309;-80
2023/05/29 09:49:46;;;;;;;1.90;1.47;;;15.10;99.90;;;;;;4989545;28;20567;-80
2023/05/29 09:52:17;;;;;;;4.93;1.60;;;15.20;99.90;;;;;;4973550;28;20667;-80
2023/05/29 09:54:46;;;;;;;9.07;2.37;;;15.60;99.90;;;;;;4974278;28;20163;-79
2023/05/29 09:57:14;;;;;;;4.30;1.20;;;16.20;99.90;;;;;;4958357;28;20215;-80
2023/05/29 09:59:43;;;;;;;4.33;1.77;;;16.60;99.90;;;;;;5006785;28;20226;-80
2023/05/29 10:02:12;;;;;;;2.87;2.00;;;16.40;99.90;;;;;;4989794;28;20264;-79
2023/05/29 10:04:40;;;;;;;6.17;1.50;;;16.40;99.90;;;;;;4973447;28;20219;-80
2023/05/29 10:07:31;;;;;;;8.83;2.00;;;17.20;99.90;;;;;;4973587;28;20187;-80
2023/05/29 10:10:03;;;;;;;4.33;1.50;;;17.20;99.90;;;;;;4989367;28;20176;-80
2023/05/29 10:12:31;;;;;;;6.60;1.80;;;17.00;99.90;;;;;;5006164;28;20266;-80
2023/05/29 10:14:59;;;;;;;4.40;1.50;;;17.30;99.90;;;;;;5006888;28;20219;-81
2023/05/29 10:17:32;;;;;;;11.93;1.97;;;17.90;99.90;;;;;;4973174;28;20582;-79
2023/05/29 10:20:00;;;;;;;3.23;1.03;;;18.40;99.90;;;;;;5006629;28;20262;-81
2023/05/29 10:22:27;;;;;;;7.43;1.20;;;18.10;99.90;;;;;;4989366;28;20636;-83
2023/05/29 10:24:55;;;;;;;7.63;1.77;;;17.30;99.90;;;;;;4989759;28;20183;-82
2023/05/29 10:27:20;;;;;;;4.07;1.40;;;17.00;99.90;;;;;;5006993;28;20281;-83
2023/05/29 10:29:59;;;;;;;6.13;1.93;;;17.30;99.90;;;;;;4989214;28;20695;-83
2023/05/29 10:32:56;;;;;;;1.73;1.20;;;17.50;99.90;;;;;;4989102;28;20303;-83
2023/05/29 10:35:28;;;;;;;5.57;1.30;;;17.50;99.90;;;;;;5006579;28;20253;-83
2023/05/29 10:38:28;;;;;;;6.53;1.60;;;17.30;99.90;;;;;;5006640;28;20227;-83
2023/05/29 10:40:53;;;;;;;4.93;1.20;;;17.60;99.90;;;;;;5002648;28;20235;-83
2023/05/29 10:43:45;;;;;;;8.10;1.83;;;17.10;99.90;;;;;;4957291;28;20218;-83
2023/05/29 10:46:11;;;;;;;1.87;1.17;;;16.80;99.90;;;;;;4985444;28;20553;-83
2023/05/29 10:48:38;;;;;;;3.50;0.80;;;17.00;99.90;;;;;;4957411;28;20180;-83
2023/05/29 10:51:06;;;;;;;5.50;0.97;;;16.60;99.90;;;;;;4988715;28;20218;-82
2023/05/29 10:53:33;;;;;;;3.00;1.07;;;16.60;99.90;;;;;;4989227;28;20281;-83
2023/05/29 10:56:03;;;;;;;1.53;0.80;;;16.90;99.90;;;;;;4973160;28;20211;-83
2023/05/29 10:58:30;;;;;;;5.33;1.17;;;17.30;99.90;;;;;;5006628;28;20293;-83
2023/05/29 11:00:58;;;;;;;4.43;1.23;;;17.30;99.90;;;;;;4989621;28;20216;-83
2023/05/29 11:03:34;;;;;;;1.30;1.17;;;16.90;99.90;;;;;;5006709;28;20227;-82
2023/05/29 11:06:10;;;;;;;4.43;1.50;;;16.10;99.90;;;;;;5006530;28;20684;-82
2023/05/29 11:08:55;;;;;;;5.60;1.97;;;15.70;99.90;;;;;;4974735;28;20219;-82
2023/05/29 11:11:27;;;;;;;3.10;1.00;;;15.50;99.90;;;;;;4976689;28;20258;-83
2023/05/29 11:13:55;;;;;;;5.20;1.00;;;15.70;99.90;;;;;;4992839;28;20317;-84
2023/05/29 11:16:20;;;;;;;2.77;1.40;;;16.20;99.90;;;;;;5010484;28;20247;-83
2023/05/29 11:18:49;;;;;;;2.57;0.97;;;16.60;99.90;;;;;;4993170;28;20277;-83
2023/05/29 11:21:34;;;;;;;4.90;1.90;;;16.80;99.90;;;;;;4992370;28;20703;-84
2023/05/29 11:24:06;;;;;;;5.73;0.97;;;16.70;99.90;;;;;;4992465;28;20238;-83
2023/05/29 11:26:33;;;;;;;3.27;0.70;;;16.90;99.90;;;;;;4992473;28;20816;-83
2023/05/29 11:29:10;;;;;;;7.97;1.83;;;16.90;99.90;;;;;;4992278;28;20219;-82
2023/05/29 11:31:39;;;;;;;4.90;0.93;;;16.80;99.90;;;;;;4992308;28;20229;-83
2023/05/29 11:34:07;;;;;;;2.60;0.70;;;16.60;99.90;;;;;;4992174;28;20183;-82
2023/05/29 11:36:33;;;;;;;1.33;0.90;;;16.30;99.90;;;;;;5010200;28;20254;-84
2023/05/29 11:39:00;;;;;;;14.43;1.80;;;16.40;99.90;;;;;;5008783;28;20227;-82
2023/05/29 11:41:26;;;;;;;4.60;1.50;;;16.50;99.90;;;;;;5008211;28;20700;-82
2023/05/29 11:44:05;;;;;;;1.70;0.70;;;16.30;99.90;;;;;;4991973;28;20223;-81
2023/05/29 11:46:32;;;;;;;3.67;1.77;;;16.00;99.90;;;;;;5009566;28;20269;-82
2023/05/29 11:49:01;;;;;;;4.13;0.90;;;16.20;99.90;;;;;;4992377;28;20179;-82
2023/05/29 11:51:27;;;;;;;3.27;1.60;;;15.50;99.90;;;;;;4976143;28;20210;-82
2023/05/29 11:53:57;;;;;;;5.30;1.63;;;16.10;99.90;;;;;;5009209;28;20281;-81
2023/05/29 11:56:25;;;;;;;1.97;0.90;;;16.30;99.90;;;;;;4991848;28;20238;-81
2023/05/29 11:58:55;;;;;;;1.70;1.30;;;16.10;99.90;;;;;;4991838;28;20624;-82
2023/05/29 12:01:21;;;;;;;2.30;1.40;;;16.00;99.90;;;;;;4976096;28;20231;-82
2023/05/29 12:03:47;;;;;;;6.77;1.60;;;16.00;99.90;;;;;;4992201;28;20180;-82
2023/05/29 12:06:12;;;;;;;1.67;1.40;;;15.90;99.90;;;;;;4975445;28;20345;-83
2023/05/29 12:08:39;;;;;;;4.97;0.93;;;15.70;99.90;;;;;;4991676;28;20770;-83
2023/05/29 12:11:05;;;;;;;2.20;1.33;;;15.50;99.90;;;;;;5009352;28;20222;-82
2023/05/29 12:13:32;;;;;;;1.53;1.40;;;15.80;99.90;;;;;;4991555;28;20238;-83
2023/05/29 12:16:03;;;;;;;2.97;1.20;;;15.60;99.90;;;;;;4992023;28;20637;-82
2023/05/29 12:18:29;;;;;;;2.20;1.40;;;15.90;99.90;;;;;;5009465;28;20230;-82
2023/05/29 12:21:02;;;;;;;8.83;1.87;;;16.10;99.90;;;;;;4975087;28;20321;-81
2023/05/29 12:23:29;;;;;;;5.80;0.93;;;16.10;99.90;;;;;;4991251;28;20215;-84
2023/05/29 12:25:56;;;;;;;3.67;0.90;;;16.00;99.90;;;;;;4991231;28;20219;-82
2023/05/29 12:28:22;;;;;;;2.67;1.00;;;16.10;99.90;;;;;;4975281;28;20222;-83
2023/05/29 12:30:52;;;;;;;1.93;1.37;;;15.80;99.90;;;;;;4991796;28;20269;-83
2023/05/29 12:33:33;;;;;;;4.27;0.87;;;15.90;99.90;;;;;;4991320;28;20243;-83
2023/05/29 12:36:07;;;;;;;2.60;1.40;;;15.90;99.90;;;;;;4990868;28;20342;-82
2023/05/29 12:38:45;;;;;;;4.87;0.97;;;16.30;99.90;;;;;;4991436;28;20226;-82
2023/05/29 12:41:28;;;;;;;2.17;0.90;;;16.00;99.90;;;;;;4991321;28;20831;-83
2023/05/29 12:43:58;;;;;;;7.17;1.73;;;15.70;99.90;;;;;;4991219;28;20219;-81
2023/05/29 12:46:25;;;;;;;5.97;1.27;;;15.70;99.90;;;;;;5008623;28;20223;-82
2023/05/29 12:48:53;;;;;;;4.80;1.30;;;15.50;99.90;;;;;;4975504;28;20270;-82